Time;durP1;ratioP1;P1;durP2;ratioP2;P2;SDS_P1;SDS_P2;PMS_P1;PMS_P2;Temp;Humidity;BMP_temperature;BMP_pressure;BME280_temperature;BME280_humidity;BME280_pressure;Samples;Min_cycle;Max_cycle;Signal;HPM_P1;HPM_P2
2023/03/22 00:01:36;;;;;;;7.87;3.03;;;;;;;14.85;48.12;97955.81;5212908;27;20088;-81
2023/03/22 00:04:03;;;;;;;8.13;2.87;;;;;;;14.57;48.75;97953.22;5213766;27;20058;-81
2023/03/22 00:06:30;;;;;;;12.43;3.97;;;;;;;15.48;45.89;97951.88;5213421;27;20071;-81
2023/03/22 00:08:57;;;;;;;13.07;4.40;;;;;;;15.46;45.77;97943.34;5212730;27;20389;-81
2023/03/22 00:11:24;;;;;;;12.68;5.35;;;;;;;15.23;46.32;97947.41;5213528;27;20055;-81
2023/03/22 00:13:52;;;;;;;16.10;6.03;;;;;;;15.22;46.31;97950.94;5213097;27;20405;-81
2023/03/22 00:16:20;;;;;;;16.77;5.62;;;;;;;15.34;45.79;97952.75;5213381;27;20062;-81
2023/03/22 00:18:47;;;;;;;9.73;3.55;;;;;;;14.88;46.93;97957.38;5213608;27;20069;-81
2023/03/22 00:21:15;;;;;;;16.20;6.97;;;;;;;15.10;46.78;97955.16;5212938;27;20089;-81
2023/03/22 00:23:43;;;;;;;17.65;7.32;;;;;;;14.59;47.68;97952.22;5213705;27;20104;-81
2023/03/22 00:26:11;;;;;;;14.10;6.10;;;;;;;14.22;48.52;97950.09;5213656;27;20398;-81
2023/03/22 00:28:38;;;;;;;11.57;4.65;;;;;;;14.22;48.65;97948.34;5194434;27;20058;-81
2023/03/22 00:31:05;;;;;;;9.40;3.10;;;;;;;14.46;48.11;97954.72;5213300;27;20376;-81
2023/03/22 00:33:33;;;;;;;7.62;2.95;;;;;;;15.16;46.24;97943.53;5213251;27;20047;-81
2023/03/22 00:36:05;;;;;;;8.23;3.00;;;;;;;14.50;48.00;97944.97;5212656;27;20066;-81
2023/03/22 00:38:38;;;;;;;7.55;2.58;;;;;;;14.62;48.14;97951.19;5213982;27;20128;-81
2023/03/22 00:41:12;;;;;;;7.03;3.13;;;;;;;13.99;49.65;97949.69;5213620;27;20046;-82
2023/03/22 00:43:39;;;;;;;7.50;2.90;;;;;;;13.80;51.00;97951.66;5213559;27;20540;-81
2023/03/22 00:46:07;;;;;;;7.47;2.67;;;;;;;13.34;51.93;97936.13;5213828;27;20062;-81
2023/03/22 00:48:34;;;;;;;8.38;2.75;;;;;;;13.14;53.07;97939.78;5214031;27;20059;-81
2023/03/22 00:51:01;;;;;;;7.47;2.92;;;;;;;12.84;53.74;97939.66;5213424;27;20108;-81
2023/03/22 00:53:28;;;;;;;8.70;2.87;;;;;;;12.39;55.58;97936.00;5214145;27;20046;-81
2023/03/22 00:55:56;;;;;;;7.70;2.78;;;;;;;12.28;55.97;97940.91;5212591;27;20067;-81
2023/03/22 00:58:23;;;;;;;7.85;2.80;;;;;;;13.08;53.60;97944.44;5195671;27;20493;-81
2023/03/22 01:00:50;;;;;;;7.62;2.83;;;;;;;13.71;51.56;97931.44;5214626;27;20053;-81
2023/03/22 01:03:17;;;;;;;7.37;2.78;;;;;;;13.48;51.72;97931.00;5214760;27;20050;-81
2023/03/22 01:05:45;;;;;;;7.87;2.95;;;;;;;12.79;53.53;97931.34;5215668;27;20394;-81
2023/03/22 01:08:13;;;;;;;6.95;2.70;;;;;;;12.86;54.26;97937.00;5216221;27;20023;-81
2023/03/22 01:10:41;;;;;;;8.23;3.05;;;;;;;14.02;50.91;97925.31;5214821;27;20058;-81
2023/03/22 01:13:10;;;;;;;6.70;2.67;;;;;;;14.04;50.18;97920.91;5215073;27;20050;-81
2023/03/22 01:15:37;;;;;;;9.40;2.47;;;;;;;14.13;49.55;97925.53;5214929;27;20062;-81
2023/03/22 01:18:04;;;;;;;8.27;3.17;;;;;;;13.58;50.51;97934.75;5214652;27;20062;-81
2023/03/22 01:20:31;;;;;;;6.82;2.83;;;;;;;13.60;51.01;97930.28;5215714;27;20089;-81
2023/03/22 01:22:58;;;;;;;8.10;3.08;;;;;;;13.21;52.11;97925.59;5215521;27;20058;-81
2023/03/22 01:25:25;;;;;;;9.38;3.33;;;;;;;12.77;53.08;97925.41;5214436;27;20451;-81
2023/03/22 01:27:52;;;;;;;8.45;3.17;;;;;;;13.34;52.62;97923.16;5214245;27;20058;-81
2023/03/22 01:30:19;;;;;;;10.00;3.08;;;;;;;13.29;52.82;97930.34;5213780;27;20054;-81
2023/03/22 01:32:46;;;;;;;7.68;3.00;;;;;;;13.70;51.89;97920.25;5213377;27;20356;-81
2023/03/22 01:35:13;;;;;;;8.85;3.40;;;;;;;14.06;50.77;97916.47;5212374;27;20071;-81
2023/03/22 01:37:40;;;;;;;7.90;3.10;;;;;;;14.38;49.69;97914.53;5213668;27;20120;-81
2023/03/22 01:40:09;;;;;;;7.95;2.97;;;;;;;14.72;49.05;97913.34;5212689;27;20432;-81
2023/03/22 01:42:35;;;;;;;12.57;3.05;;;;;;;15.13;47.85;97915.13;5213693;27;20046;-81
2023/03/22 01:45:17;;;;;;;9.40;3.35;;;;;;;15.19;47.15;97915.56;5213313;27;20062;-81
2023/03/22 01:47:54;;;;;;;9.48;3.10;;;;;;;15.10;47.53;97908.38;5213513;27;20058;-81
2023/03/22 01:50:22;;;;;;;7.57;3.00;;;;;;;15.32;47.37;97916.47;5194924;27;20111;-81
2023/03/22 01:52:49;;;;;;;8.20;3.10;;;;;;;14.92;48.31;97909.53;5194422;27;20112;-81
2023/03/22 01:55:21;;;;;;;8.50;3.50;;;;;;;15.25;47.85;97914.34;5212243;27;20115;-81
2023/03/22 01:57:48;;;;;;;9.57;3.55;;;;;;;15.81;46.24;97912.47;5214039;27;20073;-81
2023/03/22 02:00:17;;;;;;;10.55;4.55;;;;;;;15.95;45.77;97909.81;5213085;27;20077;-81
2023/03/22 02:02:47;;;;;;;8.70;3.83;;;;;;;15.62;46.42;97912.84;5213560;27;20062;-81
2023/03/22 02:05:14;;;;;;;12.18;4.25;;;;;;;15.75;46.36;97905.91;5212247;27;20101;-81
2023/03/22 02:07:42;;;;;;;11.63;4.12;;;;;;;15.48;47.29;97910.28;5194277;27;20039;-81
2023/03/22 02:10:12;;;;;;;13.25;4.65;;;;;;;15.49;47.38;97904.97;5213504;27;20447;-81
2023/03/22 02:13:07;;;;;;;11.68;4.70;;;;;;;15.65;46.86;97912.66;5213552;27;20061;-81
2023/03/22 02:15:41;;;;;;;12.40;5.03;;;;;;;15.66;47.07;97905.69;5213481;27;20062;-81
2023/03/22 02:18:27;;;;;;;11.55;4.30;;;;;;;16.32;44.89;97904.72;5195100;27;20085;-81
2023/03/22 02:21:11;;;;;;;15.60;6.37;;;;;;;16.16;45.22;97913.56;5213120;27;20108;-81
2023/03/22 02:24:00;;;;;;;13.77;5.65;;;;;;;15.58;47.03;97913.94;5213489;27;20050;-81
2023/03/22 02:26:52;;;;;;;9.95;3.58;;;;;;;15.75;46.25;97913.72;5213609;27;20108;-81
2023/03/22 02:29:28;;;;;;;9.38;3.25;;;;;;;15.96;46.14;97921.03;5213091;27;20121;-81
2023/03/22 02:32:03;;;;;;;7.37;2.90;;;;;;;16.19;45.31;97922.94;5213535;27;20065;-81
2023/03/22 02:34:30;;;;;;;8.23;3.12;;;;;;;15.71;45.96;97925.25;5213309;27;20043;-81
2023/03/22 02:36:56;;;;;;;;;;;;;;;14.99;47.90;97928.97;5213801;27;20062;-81
2023/03/22 02:39:46;;;;;;;5.97;2.28;;;;;;;15.39;47.19;97922.09;5213435;27;19962;-81
2023/03/22 02:42:16;;;;;;;10.52;3.78;;;;;;;15.52;46.82;97922.13;5213040;27;20051;-81
2023/03/22 02:45:10;;;;;;;12.18;4.70;;;;;;;15.14;48.00;97917.63;5213518;27;20050;-81
2023/03/22 02:47:37;;;;;;;13.02;5.18;;;;;;;15.43;47.91;97921.00;5213437;27;20417;-81
2023/03/22 02:50:10;;;;;;;11.98;5.75;;;;;;;15.81;47.33;97922.88;5213004;27;20062;-81
2023/03/22 02:52:46;;;;;;;11.40;4.68;;;;;;;15.64;47.97;97920.56;5213457;27;20460;-81
2023/03/22 02:55:20;;;;;;;10.80;4.62;;;;;;;15.85;47.84;97919.16;5213231;27;20050;-81
2023/03/22 02:58:09;;;;;;;11.50;3.90;;;;;;;15.33;48.94;97920.75;5194711;27;20067;-81
2023/03/22 03:00:37;;;;;;;12.52;4.87;;;;;;;15.24;49.97;97925.69;5211708;27;20111;-81
2023/03/22 03:03:10;;;;;;;11.82;4.28;;;;;;;15.55;48.67;97930.59;5211687;27;20051;-81
2023/03/22 03:06:01;;;;;;;10.25;4.15;;;;;;;16.44;46.31;97925.53;5177677;27;20322;-81
2023/03/22 03:08:29;;;;;;;10.82;4.75;;;;;;;15.68;48.43;97930.66;5194613;27;20066;-81
2023/03/22 03:10:56;;;;;;;9.43;3.95;;;;;;;15.95;47.88;97927.16;5212910;27;20067;-81
2023/03/22 03:13:23;;;;;;;10.55;4.28;;;;;;;16.32;46.78;97928.16;5213367;27;20065;-81
2023/03/22 03:15:53;;;;;;;12.93;5.62;;;;;;;16.11;47.57;97936.47;5213455;27;20042;-81
2023/03/22 03:18:39;;;;;;;15.63;7.22;;;;;;;16.10;47.43;97926.16;5213052;27;20125;-81
2023/03/22 03:21:22;;;;;;;15.05;6.15;;;;;;;15.81;48.08;97928.91;5213415;27;20364;-81
2023/03/22 03:24:26;;;;;;;10.43;4.20;;;;;;;15.81;47.87;97935.87;5213054;27;20051;-81
2023/03/22 03:26:59;;;;;;;10.88;4.35;;;;;;;15.15;49.49;97929.69;5229967;27;20054;-81
2023/03/22 03:29:41;;;;;;;10.20;4.05;;;;;;;14.04;52.59;97936.47;5213392;27;20311;-82
2023/03/22 03:32:18;;;;;;;9.38;3.28;;;;;;;14.01;53.32;97929.69;5213085;27;20381;-82
2023/03/22 03:34:50;;;;;;;7.97;3.25;;;;;;;15.13;50.21;97926.38;5212133;27;20070;-81
2023/03/22 03:37:38;;;;;;;9.07;3.45;;;;;;;16.18;47.29;97932.53;5213194;27;20047;-81
2023/03/22 03:40:11;;;;;;;8.77;3.17;;;;;;;15.41;48.50;97937.59;5194372;27;22378;-81
2023/03/22 03:42:43;;;;;;;8.75;3.20;;;;;;;15.10;50.01;97934.38;5212044;27;20111;-81
2023/03/22 03:45:10;;;;;;;7.95;3.10;;;;;;;15.23;49.56;97943.03;5194278;27;20054;-81
2023/03/22 03:47:37;;;;;;;9.10;3.22;;;;;;;16.47;45.76;97943.53;5211789;27;20058;-81
2023/03/22 03:50:05;;;;;;;8.05;3.15;;;;;;;15.79;47.14;97942.97;5213249;27;20066;-81
2023/03/22 03:52:32;;;;;;;7.28;2.80;;;;;;;15.82;47.28;97950.56;5194244;27;20376;-81
2023/03/22 03:54:58;;;;;;;6.57;2.70;;;;;;;15.23;48.41;97939.62;5213226;27;20065;-81
2023/03/22 03:57:26;;;;;;;8.45;3.03;;;;;;;15.26;48.31;97940.25;5213190;27;20061;-81
2023/03/22 03:59:53;;;;;;;7.25;2.78;;;;;;;15.07;49.12;97937.13;5212685;27;20084;-81
2023/03/22 04:02:19;;;;;;;5.95;2.53;;;;;;;15.33;48.61;97938.94;5213081;27;20054;-81
2023/03/22 04:04:46;;;;;;;7.28;2.47;;;;;;;15.45;48.11;97944.28;5213170;27;20069;-82
2023/03/22 04:07:14;;;;;;;7.20;2.60;;;;;;;15.71;47.18;97942.63;5212708;27;20484;-81
2023/03/22 04:09:41;;;;;;;7.93;2.65;;;;;;;15.21;48.37;97947.50;5213040;27;20058;-81
2023/03/22 04:12:10;;;;;;;6.68;2.53;;;;;;;15.37;48.21;97951.72;5213151;27;20058;-81
2023/03/22 04:14:37;;;;;;;6.20;2.42;;;;;;;15.53;47.80;97957.63;5212804;27;20056;-81
2023/03/22 04:17:04;;;;;;;5.85;2.40;;;;;;;14.96;48.90;97957.75;5213176;27;20046;-81
2023/03/22 04:19:31;;;;;;;9.32;2.70;;;;;;;15.23;48.68;97958.63;5212608;27;20063;-81
2023/03/22 04:21:59;;;;;;;8.90;3.25;;;;;;;14.98;49.54;97961.91;5212956;27;20058;-81
2023/03/22 04:24:26;;;;;;;9.95;3.80;;;;;;;14.27;52.03;97950.69;5213055;27;20055;-81
2023/03/22 04:26:53;;;;;;;9.25;3.50;;;;;;;14.83;51.01;97954.25;5212671;27;20054;-81
2023/03/22 04:29:20;;;;;;;11.70;3.90;;;;;;;15.43;49.28;97952.19;5213061;27;20059;-81
2023/03/22 04:31:47;;;;;;;12.15;4.35;;;;;;;15.31;49.60;97953.81;5212839;27;20077;-81
2023/03/22 04:34:14;;;;;;;12.57;5.40;;;;;;;15.07;50.23;97951.88;5212654;27;20051;-81
2023/03/22 04:36:41;;;;;;;10.48;4.65;;;;;;;15.32;49.29;97952.88;5213028;27;20050;-82
2023/03/22 04:39:09;;;;;;;13.38;4.78;;;;;;;15.19;49.97;97948.53;5212978;27;20058;-81
2023/03/22 04:41:36;;;;;;;10.95;5.12;;;;;;;15.33;49.87;97943.31;5212091;27;20062;-81
2023/03/22 04:44:05;;;;;;;11.77;5.18;;;;;;;15.56;49.36;97944.44;5212831;27;20054;-81
2023/03/22 04:46:34;;;;;;;11.52;4.90;;;;;;;14.33;52.13;97948.53;5212910;27;20047;-81
2023/03/22 04:49:02;;;;;;;12.57;4.80;;;;;;;14.58;51.52;97954.91;5212367;27;20055;-81
2023/03/22 04:51:30;;;;;;;10.82;4.30;;;;;;;15.21;50.30;97952.72;5212860;27;20077;-81
2023/03/22 04:53:57;;;;;;;13.45;4.30;;;;;;;16.10;47.78;97954.78;5212893;27;20058;-81
2023/03/22 04:56:25;;;;;;;11.23;4.53;;;;;;;15.27;49.60;97962.72;5212515;27;20051;-82
2023/03/22 04:58:52;;;;;;;11.85;4.57;;;;;;;15.34;49.70;97965.75;5212784;27;20062;-81
2023/03/22 05:01:19;;;;;;;11.27;4.10;;;;;;;15.09;50.61;97969.03;5212741;27;20093;-81
2023/03/22 05:03:46;;;;;;;11.05;4.40;;;;;;;16.07;47.90;97965.41;5212303;27;20109;-81
2023/03/22 05:06:14;;;;;;;10.18;4.55;;;;;;;16.23;47.60;97967.81;5212827;27;20401;-81
2023/03/22 05:08:41;;;;;;;10.02;4.30;;;;;;;15.23;49.93;97976.00;5212378;27;20054;-82
2023/03/22 05:11:15;;;;;;;8.23;3.83;;;;;;;13.72;54.44;97975.47;5212802;27;20058;-81
2023/03/22 05:13:42;;;;;;;12.43;4.35;;;;;;;14.97;51.47;97969.81;5212842;27;20129;-81
2023/03/22 05:16:09;;;;;;;14.13;4.65;;;;;;;15.28;50.21;97973.94;5212267;27;20402;-81
2023/03/22 05:18:41;;;;;;;14.18;4.22;;;;;;;15.79;49.27;97972.41;5193810;27;20112;-81
2023/03/22 05:21:16;;;;;;;9.88;4.15;;;;;;;15.39;50.46;97973.25;5212667;27;20084;-81
2023/03/22 05:23:44;;;;;;;10.85;4.53;;;;;;;15.38;50.62;97974.19;5194364;27;20107;-81
2023/03/22 05:26:14;;;;;;;9.85;4.12;;;;;;;15.39;50.82;97973.25;5213685;27;20043;-81
2023/03/22 05:28:42;;;;;;;11.60;4.32;;;;;;;15.32;50.86;97967.63;5213624;27;20067;-81
2023/03/22 05:31:13;;;;;;;9.20;4.37;;;;;;;15.80;49.75;97971.47;5213274;27;20077;-81
2023/03/22 05:33:40;;;;;;;12.02;4.90;;;;;;;15.18;51.10;97973.66;5213743;27;20126;-81
2023/03/22 05:36:08;;;;;;;12.23;4.43;;;;;;;16.36;48.54;97971.25;5213640;27;20058;-81
2023/03/22 05:38:35;;;;;;;9.38;4.15;;;;;;;16.96;47.35;97984.50;5213100;27;20120;-81
2023/03/22 05:41:02;;;;;;;10.55;4.43;;;;;;;16.64;47.60;97986.69;5213414;27;20069;-82
2023/03/22 05:43:29;;;;;;;9.73;4.30;;;;;;;16.60;48.32;97982.63;5213641;27;20108;-82
2023/03/22 05:45:56;;;;;;;11.20;3.95;;;;;;;16.11;49.57;97985.06;5213640;27;20381;-81
2023/03/22 05:48:23;;;;;;;9.43;3.72;;;;;;;15.91;50.21;97982.00;5207944;27;150147;-81
2023/03/22 05:50:50;;;;;;;9.00;3.90;;;;;;;16.41;49.36;97982.22;5213144;27;20321;-81
2023/03/22 05:53:16;;;;;;;10.40;4.00;;;;;;;15.86;49.88;97989.28;5213585;27;20065;-81
2023/03/22 05:55:43;;;;;;;10.77;3.90;;;;;;;15.12;51.67;97987.06;5213667;27;20096;-81
2023/03/22 05:58:11;;;;;;;10.10;3.80;;;;;;;16.01;49.92;97997.84;5213031;27;20465;-81
2023/03/22 06:00:38;;;;;;;9.25;3.70;;;;;;;16.44;48.37;97992.41;5213572;27;20062;-81
2023/03/22 06:03:06;;;;;;;10.27;3.20;;;;;;;16.70;47.23;97993.28;5213410;27;20470;-81
2023/03/22 06:05:35;;;;;;;8.77;3.60;;;;;;;16.02;48.59;97998.69;5213184;27;20134;-81
2023/03/22 06:08:03;;;;;;;10.30;3.70;;;;;;;15.76;49.69;97998.63;5213354;27;20061;-81
2023/03/22 06:10:29;;;;;;;8.55;3.30;;;;;;;16.68;47.34;98006.41;5213581;27;20075;-81
2023/03/22 06:12:56;;;;;;;8.55;3.50;;;;;;;17.36;45.38;98005.16;5213381;27;20081;-81
2023/03/22 06:15:23;;;;;;;8.05;3.20;;;;;;;16.93;46.10;98002.97;5213633;27;20051;-81
2023/03/22 06:17:50;;;;;;;10.43;3.80;;;;;;;16.72;47.35;98001.84;5213428;27;20066;-81
2023/03/22 06:20:18;;;;;;;9.43;3.53;;;;;;;16.20;48.53;98008.72;5213094;27;20070;-81
2023/03/22 06:22:45;;;;;;;8.75;3.70;;;;;;;15.77;50.37;98005.50;5213371;27;20069;-81
2023/03/22 06:25:13;;;;;;;13.35;4.15;;;;;;;17.35;46.66;98006.13;5213489;27;20046;-81
2023/03/22 06:27:40;;;;;;;8.75;3.65;;;;;;;16.95;47.52;97997.63;5213063;27;20074;-80
2023/03/22 06:30:07;;;;;;;9.80;3.80;;;;;;;17.59;46.15;98012.19;5213482;27;20081;-80
2023/03/22 06:32:34;;;;;;;11.45;4.00;;;;;;;17.31;46.65;98015.91;5213582;27;20108;-81
2023/03/22 06:35:01;;;;;;;11.15;4.30;;;;;;;16.46;48.73;98012.19;5212639;27;20435;-81
2023/03/22 06:37:28;;;;;;;12.25;4.85;;;;;;;17.01;47.30;98012.84;5213469;27;20066;-80
2023/03/22 06:39:55;;;;;;;14.13;5.28;;;;;;;17.11;45.82;98013.88;5212772;27;20077;-81
2023/03/22 06:42:22;;;;;;;13.10;5.18;;;;;;;16.15;47.82;98012.56;5213446;27;20054;-81
2023/03/22 06:44:49;;;;;;;12.18;4.97;;;;;;;15.93;49.58;98014.91;5213456;27;20047;-81
2023/03/22 06:47:16;;;;;;;15.00;6.40;;;;;;;15.51;50.73;98012.31;5213045;27;20059;-81
2023/03/22 06:49:42;;;;;;;13.13;5.50;;;;;;;16.63;47.78;98011.06;5213334;27;20054;-80
2023/03/22 06:52:09;;;;;;;13.40;5.50;;;;;;;18.02;44.05;98023.94;5213396;27;20096;-80
2023/03/22 06:54:36;;;;;;;13.90;6.03;;;;;;;17.52;45.45;98023.16;5212948;27;20051;-81
2023/03/22 06:57:03;;;;;;;14.40;6.32;;;;;;;15.91;48.67;98031.44;5213297;27;20384;-79
2023/03/22 06:59:30;;;;;;;15.55;7.40;;;;;;;15.59;50.86;98033.47;5213175;27;20059;-78
2023/03/22 07:01:57;;;;;;;16.05;7.65;;;;;;;15.30;50.74;98032.69;5212668;27;20065;-78
2023/03/22 07:04:24;;;;;;;16.73;8.02;;;;;;;14.80;52.55;98043.59;5213034;27;20099;-79
2023/03/22 07:06:51;;;;;;;14.55;7.50;;;;;;;14.90;52.32;98039.50;5212957;27;20054;-79
2023/03/22 07:09:18;;;;;;;20.35;8.45;;;;;;;14.67;53.92;98034.84;5212461;27;20055;-78
2023/03/22 07:11:45;;;;;;;17.48;8.32;;;;;;;15.55;51.59;98034.59;5212150;27;20051;-79
2023/03/22 07:14:12;;;;;;;16.73;8.60;;;;;;;14.96;53.82;98038.28;5213480;27;20069;-79
2023/03/22 07:16:39;;;;;;;21.37;9.70;;;;;;;15.25;54.57;98039.12;5212760;27;20066;-79
2023/03/22 07:19:06;;;;;;;21.20;9.75;;;;;;;14.54;55.92;98039.09;5213075;27;20121;-81
2023/03/22 07:21:33;;;;;;;20.67;9.80;;;;;;;14.50;55.92;98045.41;5213734;27;20401;-81
2023/03/22 07:24:00;;;;;;;21.17;9.77;;;;;;;13.88;59.12;98041.09;5213943;27;20046;-79
2023/03/22 07:26:29;;;;;;;21.02;10.18;;;;;;;14.98;55.49;98041.63;5213342;27;20098;-83
2023/03/22 07:28:56;;;;;;;19.27;9.38;;;;;;;15.74;52.68;98039.53;5212374;27;20070;-83
2023/03/22 07:31:23;;;;;;;24.00;11.02;;;;;;;15.62;53.54;98046.31;5213016;27;20058;-84
2023/03/22 07:33:51;;;;;;;26.08;11.20;;;;;;;16.23;51.44;98051.13;5212929;27;20100;-85
2023/03/22 07:36:22;;;;;;;21.52;10.73;;;;;;;15.40;53.78;98042.53;5212385;27;20054;-84
2023/03/22 07:38:50;;;;;;;22.25;10.65;;;;;;;16.48;50.40;98044.19;5212751;27;20067;-84
2023/03/22 07:41:17;;;;;;;20.05;10.05;;;;;;;16.30;51.07;98042.81;5212555;27;20685;-84
2023/03/22 07:43:45;;;;;;;20.85;11.00;;;;;;;16.89;49.22;98040.59;5212417;27;20104;-83
2023/03/22 07:46:23;;;;;;;21.62;11.70;;;;;;;17.25;47.69;98042.44;5213119;27;20062;-83
2023/03/22 07:48:50;;;;;;;21.10;10.68;;;;;;;17.19;48.19;98039.41;5213707;27;20062;-84
2023/03/22 07:51:18;;;;;;;20.67;11.00;;;;;;;15.80;50.79;98041.72;5212084;27;20058;-83
2023/03/22 07:53:44;;;;;;;24.02;11.00;;;;;;;16.57;48.77;98036.69;5212957;27;20054;-83
2023/03/22 07:56:11;;;;;;;20.10;10.48;;;;;;;17.11;47.81;98042.53;5194200;27;20123;-82
2023/03/22 07:58:41;;;;;;;22.95;10.80;;;;;;;17.61;46.63;98044.22;5212353;27;20066;-84
2023/03/22 08:01:08;;;;;;;20.33;10.02;;;;;;;17.59;46.13;98048.72;5213210;27;20055;-86
2023/03/22 08:03:36;;;;;;;22.15;10.73;;;;;;;18.45;44.31;98050.31;5212992;27;20413;-85
2023/03/22 08:06:06;;;;;;;22.55;12.20;;;;;;;18.90;43.75;98039.97;5213059;27;20062;-86
2023/03/22 08:08:35;;;;;;;22.67;11.68;;;;;;;17.77;46.72;98049.22;5213297;27;20063;-86
2023/03/22 08:11:06;;;;;;;23.48;12.35;;;;;;;17.40;47.78;98048.34;5211432;27;20465;-85
2023/03/22 08:13:33;;;;;;;25.70;12.27;;;;;;;18.00;46.32;98047.53;5211711;27;20535;-85
2023/03/22 08:16:02;;;;;;;27.52;12.30;;;;;;;17.97;46.44;98042.56;5212958;27;20054;-85
2023/03/22 08:18:30;;;;;;;22.75;11.30;;;;;;;16.67;49.37;98042.94;5212334;27;20098;-84
2023/03/22 08:20:58;;;;;;;25.60;12.13;;;;;;;17.77;46.85;98049.22;5212961;27;20051;-84
2023/03/22 08:23:26;;;;;;;22.13;11.43;;;;;;;18.16;46.07;98063.75;5212745;27;20345;-85
2023/03/22 08:26:07;;;;;;;27.87;12.13;;;;;;;16.74;49.10;98052.06;5212750;27;20078;-84
2023/03/22 08:28:34;;;;;;;22.73;11.75;;;;;;;16.11;51.80;98050.16;5212622;27;20311;-84
2023/03/22 08:31:08;;;;;;;23.58;11.75;;;;;;;16.76;49.67;98056.22;5208664;27;20059;-84
2023/03/22 08:33:35;;;;;;;23.35;12.15;;;;;;;16.75;49.72;98056.31;5212491;27;20104;-84
2023/03/22 08:36:07;;;;;;;23.55;11.75;;;;;;;16.92;49.84;98069.06;5212773;27;20073;-84
2023/03/22 08:38:34;;;;;;;23.85;10.88;;;;;;;18.04;46.10;98062.03;5212642;27;20058;-84
2023/03/22 08:41:02;;;;;;;19.77;10.43;;;;;;;18.09;45.40;98073.00;5212542;27;20112;-83
2023/03/22 08:43:29;;;;;;;20.02;10.40;;;;;;;18.82;43.15;98071.09;5212711;27;20542;-84
2023/03/22 08:45:56;;;;;;;22.95;10.52;;;;;;;19.31;42.00;98061.16;5212715;27;20409;-84
2023/03/22 08:48:23;;;;;;;19.52;10.75;;;;;;;19.69;41.08;98066.97;5212684;27;20078;-84
2023/03/22 08:50:50;;;;;;;21.27;10.80;;;;;;;20.30;39.96;98070.69;5212917;27;20055;-85
2023/03/22 08:53:17;;;;;;;19.90;10.73;;;;;;;18.81;43.05;98066.81;5212510;27;20120;-86
2023/03/22 08:55:44;;;;;;;24.63;11.25;;;;;;;19.78;41.00;98072.31;5212830;27;20074;-84
2023/03/22 08:58:12;;;;;;;21.62;10.85;;;;;;;19.40;41.33;98059.59;5213302;27;20062;-84
2023/03/22 09:00:40;;;;;;;19.83;10.38;;;;;;;20.39;39.88;98062.09;5194747;27;20058;-84
2023/03/22 09:03:15;;;;;;;21.17;10.88;;;;;;;20.38;39.84;98063.03;5213719;27;20046;-83
2023/03/22 09:05:42;;;;;;;23.02;10.77;;;;;;;20.17;39.82;98059.56;5213634;27;20668;-85
2023/03/22 09:08:09;;;;;;;23.95;11.70;;;;;;;20.71;38.95;98063.84;5213172;27;20054;-82
2023/03/22 09:10:50;;;;;;;21.27;11.25;;;;;;;21.08;38.88;98058.97;5211531;27;20063;-84
2023/03/22 09:13:18;;;;;;;18.12;10.02;;;;;;;20.28;39.99;98053.44;5213827;27;20047;-85
2023/03/22 09:15:45;;;;;;;22.20;10.27;;;;;;;21.76;36.97;98051.34;5213215;27;20067;-86
2023/03/22 09:18:12;;;;;;;20.33;10.25;;;;;;;22.44;35.38;98054.88;5213524;27;20066;-85
2023/03/22 09:20:39;;;;;;;22.30;11.20;;;;;;;21.86;36.88;98054.81;5213688;27;20065;-85
2023/03/22 09:23:06;;;;;;;23.25;12.13;;;;;;;21.90;37.59;98051.78;5211972;27;20055;-84
2023/03/22 09:25:34;;;;;;;20.52;11.20;;;;;;;21.60;36.96;98052.69;5213640;27;20061;-84
2023/03/22 09:28:01;;;;;;;22.27;11.63;;;;;;;22.37;36.13;98051.97;5195104;27;20371;-85
2023/03/22 09:30:28;;;;;;;23.35;12.27;;;;;;;21.61;37.25;98048.28;5213444;27;20112;-85
2023/03/22 09:32:55;;;;;;;24.48;12.18;;;;;;;22.34;36.53;98052.25;5210853;27;20129;-85
2023/03/22 09:35:23;;;;;;;22.80;12.70;;;;;;;23.21;34.92;98046.00;5209457;27;20063;-84
2023/03/22 09:37:52;;;;;;;23.50;11.85;;;;;;;23.52;34.07;98047.38;5212779;27;20062;-85
2023/03/22 09:40:24;;;;;;;21.90;11.18;;;;;;;23.01;35.26;98047.88;5208895;27;21851;-82
2023/03/22 09:42:54;;;;;;;19.67;11.30;;;;;;;23.33;34.35;98047.47;5213179;27;20050;-84
2023/03/22 09:45:36;;;;;;;19.52;10.00;;;;;;;23.55;33.97;98046.25;5212268;27;20121;-84
2023/03/22 09:48:38;;;;;;;16.00;8.25;;;;;;;23.12;34.30;98045.06;5282836;27;20096;-84
2023/03/22 09:51:10;;;;;;;18.40;7.12;;;;;;;23.25;33.80;98034.19;5207700;27;20054;-83
2023/03/22 09:53:37;;;;;;;14.90;6.47;;;;;;;23.37;33.03;98043.53;5173279;27;20050;-84
2023/03/22 09:56:14;;;;;;;12.60;6.62;;;;;;;23.18;34.00;98041.00;5191236;27;20082;-84
2023/03/22 09:59:18;;;;;;;17.60;5.68;;;;;;;23.41;34.29;98041.47;5189977;27;20062;-84
2023/03/22 10:01:58;;;;;;;11.55;4.78;;;;;;;23.74;31.82;98043.53;5191722;27;20063;-83
2023/03/22 10:05:16;;;;;;;11.93;4.03;;;;;;;23.14;31.81;98035.19;5191191;27;20071;-84
2023/03/22 10:08:01;;;;;;;8.70;3.62;;;;;;;21.98;33.24;98027.44;5233483;27;20429;-82
2023/03/22 10:10:31;;;;;;;10.07;3.83;;;;;;;21.87;32.87;98025.78;5233239;27;20124;-84
2023/03/22 10:13:14;;;;;;;8.50;3.33;;;;;;;22.26;33.53;98027.63;5167746;27;20055;-83
2023/03/22 10:16:06;;;;;;;14.13;3.65;;;;;;;21.14;33.95;98020.88;5105114;28;20521;-84
2023/03/22 10:18:36;;;;;;;9.35;3.78;;;;;;;21.40;33.52;98019.47;5088646;28;20134;-83
2023/03/22 10:21:06;;;;;;;11.15;3.58;;;;;;;21.66;33.90;98025.88;5106426;27;20151;-84
2023/03/22 10:23:39;;;;;;;9.63;3.65;;;;;;;21.57;33.57;98015.34;5105744;28;20100;-83
2023/03/22 10:26:16;;;;;;;7.55;3.20;;;;;;;21.80;33.05;98019.44;5105149;27;20287;-86
2023/03/22 10:28:44;;;;;;;10.23;3.75;;;;;;;22.12;32.64;98016.56;5089320;27;20064;-86
2023/03/22 10:31:19;;;;;;;10.93;3.47;;;;;;;22.27;32.75;98022.22;5105947;28;20068;-87
2023/03/22 10:33:57;;;;;;;8.75;3.17;;;;;;;21.83;33.08;98023.56;5144509;27;20086;-87
2023/03/22 10:36:32;;;;;;;9.45;3.45;;;;;;;22.13;32.20;98026.13;5189199;27;20114;-87
2023/03/22 10:39:05;;;;;;;8.18;3.00;;;;;;;21.81;32.03;98015.84;5189531;27;20063;-86
2023/03/22 10:41:33;;;;;;;7.93;3.03;;;;;;;21.12;33.47;98017.53;5180383;27;20110;-84
2023/03/22 10:44:03;;;;;;;7.95;3.05;;;;;;;21.18;33.13;98020.47;5173196;27;20055;-87
2023/03/22 10:46:36;;;;;;;8.68;3.40;;;;;;;20.91;33.71;98017.59;5190127;27;20097;-88
2023/03/22 10:49:04;;;;;;;7.35;3.15;;;;;;;21.27;32.59;98021.53;5172696;27;20653;-87
2023/03/22 10:51:45;;;;;;;7.65;2.90;;;;;;;21.57;32.64;98016.19;5173155;27;20075;-86
2023/03/22 10:54:14;;;;;;;7.50;2.70;;;;;;;21.44;32.63;98022.66;5190433;27;20428;-86
2023/03/22 10:56:41;;;;;;;6.32;2.35;;;;;;;21.23;31.76;98015.66;5192011;27;20061;-85
2023/03/22 10:59:48;;;;;;;9.70;3.67;;;;;;;21.08;32.90;98012.56;5190666;27;20081;-87
2023/03/22 11:02:27;;;;;;;6.53;2.65;;;;;;;21.04;33.57;98010.31;5192069;27;20421;-86
2023/03/22 11:04:57;;;;;;;9.38;3.00;;;;;;;21.22;33.19;98008.75;5173378;27;20050;-86
2023/03/22 11:07:39;;;;;;;9.18;3.53;;;;;;;21.82;32.34;98014.88;5191915;27;20047;-86
2023/03/22 11:10:09;;;;;;;8.95;3.37;;;;;;;21.28;34.41;98010.06;5173129;27;20062;-86
2023/03/22 11:12:38;;;;;;;7.62;2.75;;;;;;;22.02;32.21;98012.25;5192127;27;20067;-87
2023/03/22 11:15:10;;;;;;;5.95;2.28;;;;;;;21.31;32.63;98015.84;5172903;27;20069;-87
2023/03/22 11:17:37;;;;;;;8.48;2.40;;;;;;;20.83;32.55;98015.62;5173233;27;20055;-86
2023/03/22 11:20:05;;;;;;;6.82;2.25;;;;;;;21.01;32.71;98011.44;5191663;27;20112;-86
2023/03/22 11:22:39;;;;;;;7.45;2.72;;;;;;;21.33;31.99;98008.69;5156026;27;20062;-86
2023/03/22 11:25:13;;;;;;;8.18;2.72;;;;;;;21.46;32.82;98000.56;5191745;27;20047;-87
2023/03/22 11:27:56;;;;;;;8.43;3.20;;;;;;;21.27;34.14;98000.53;5190302;27;20544;-87
2023/03/22 11:30:26;;;;;;;7.32;2.90;;;;;;;21.40;33.56;97990.59;5191941;27;20062;-87
2023/03/22 11:33:18;;;;;;;8.77;2.92;;;;;;;21.72;32.82;97989.56;5192218;27;20063;-86
2023/03/22 11:35:52;;;;;;;6.68;2.60;;;;;;;21.74;32.38;97982.38;5191832;27;20061;-87
2023/03/22 11:38:39;;;;;;;5.93;2.50;;;;;;;22.06;31.67;97982.97;5191974;27;20047;-87
2023/03/22 11:41:07;;;;;;;;;;;;;;;22.98;30.27;97977.12;5192014;27;20121;-87
2023/03/22 11:43:47;;;;;;;7.70;2.60;;;;;;;23.57;30.26;97975.81;5190312;27;19974;-87